Portada
METAR-TAF:

METAR-TAF

Aeropuertos :

Kosrae, Micronesia

Aeropuerto Internacional de Kosrae

latitud: 05-21N, longitud: 162-57E, altitud: 3 m

Observación

El informe se hizo hace 17 horas y 42 minutos, a las 02:50 UTC
Viento 7 kt del noreste
Temperatura 31°C
Humedad 66%
Presión 1008 hPa
Visibilidad: 16.1 km
Nubes dispersas a una altura de 2200 ft
Cielo nuboso a una altura de 30000 ft

METAR: PTSA 230250Z COR 04007KT 10SM SCT022 BKN300 31/24 A2978 RMK LAST

Hora: 07:32 (20:32 UTC)

Pronóstico

El informe se hizo hace 21 horas y 7 minutos, a las 23:25 UTC
Pronóstico válido del 23 a las 00 UTC al 23 a las 24 UTC
Viento 9 kt del este-noreste
Visibilidad: 10 km
Nubes dispersas a una altura de 2100 ft

TAF: PTSA 222325Z 2300/2324 06009KT P6SM SCT021

Observaciones y pronósticos meteorológicos de más de 4000 aeropuertos (mensajes METAR y TAF).

Los puntos amarillos y rojos representan las estaciones disponibles.

Ponga el ratón en el punto deseado para ver el nombre de la estación.

Haga clic para ver las observaciones y los pronósticos meteorológicos.

Para cambiar el mapa : haga clic en los botones verdes con una cruz de color negro para hacer un zoom, en el botón verde con un guión para alejar o en las flechas verdes para mapas adyacentes.


METAR-TAF: